Time;durP1;ratioP1;P1;durP2;ratioP2;P2;SDS_P1;SDS_P2;PMS_P1;PMS_P2;Temp;Humidity;BMP_temperature;BMP_pressure;BME280_temperature;BME280_humidity;BME280_pressure;Samples;Min_cycle;Max_cycle;Signal;HPM_P1;HPM_P2
2023/07/22 00:00:56;;;;;;;4.3;2.3;;;;;;;16.35;98.44922;938.1211;;;;
2023/07/22 00:03:25;;;;;;;4.5;2.2;;;;;;;16.42;98.06934;938.0136;;;;
2023/07/22 00:05:51;;;;;;;3.7;2.7;;;;;;;16.55;97.04688;938.0809;;;;
2023/07/22 00:08:17;;;;;;;4.1;2.7;;;;;;;16.61;96.98926;938.1147;;;;
2023/07/22 00:10:48;;;;;;;2.6;2.2;;;;;;;16.67;96.67871;938.088;;;;
2023/07/22 00:13:13;;;;;;;2.8;2.1;;;;;;;16.68;96.89844;938.0959;;;;
2023/07/22 00:15:40;;;;;;;2.9;2.4;;;;;;;16.7;97.14844;938.0916;;;;
2023/07/22 00:18:05;;;;;;;3.4;2.3;;;;;;;16.75;97.29688;938.0571;;;;
2023/07/22 00:20:30;;;;;;;4.9;2.4;;;;;;;16.77;97.12891;938.0133;;;;
2023/07/22 00:23:00;;;;;;;3.6;2.3;;;;;;;16.79;96.98438;937.935;;;;
2023/07/22 00:25:25;;;;;;;5;2.4;;;;;;;16.75;96.61328;937.8593;;;;
2023/07/22 00:27:57;;;;;;;4.2;2.6;;;;;;;16.67;97.26953;937.8781;;;;
2023/07/22 00:30:28;;;;;;;2.6;2.3;;;;;;;16.59;97.72656;937.7332;;;;
2023/07/22 00:32:52;;;;;;;2.8;2.2;;;;;;;16.59;97.98047;937.7773;;;;
2023/07/22 00:35:23;;;;;;;3.8;2.3;;;;;;;16.65;97.4834;937.8669;;;;
2023/07/22 00:45:56;;;;;;;3.3;2.4;;;;;;;16.62;96.73633;937.7892;;;;
2023/07/22 00:48:21;;;;;;;3.8;2.2;;;;;;;16.65;96.4873;937.8145;;;;
2023/07/22 00:50:46;;;;;;;3.1;2.3;;;;;;;16.68;96.31055;937.7566;;;;
2023/07/22 00:53:12;;;;;;;3.5;2.3;;;;;;;16.65;96.0127;937.7575;;;;
2023/07/22 00:55:37;;;;;;;4.7;2.1;;;;;;;16.65;95.76953;937.6867;;;;
2023/07/22 00:58:04;;;;;;;3.2;2.3;;;;;;;16.63;95.69629;937.6886;;;;
2023/07/22 01:00:29;;;;;;;2.8;2.1;;;;;;;16.67;95.64844;937.6939;;;;
2023/07/22 01:03:00;;;;;;;3;2.1;;;;;;;16.72;96.05176;937.6948;;;;
2023/07/22 01:05:30;;;;;;;2.5;2.3;;;;;;;16.8;96.12793;937.7242;;;;
2023/07/22 01:07:55;;;;;;;2.9;2.2;;;;;;;16.81;95.28223;937.7795;;;;
2023/07/22 01:10:21;;;;;;;3.7;2.1;;;;;;;16.83;95.05664;937.7601;;;;
2023/07/22 01:12:45;;;;;;;2.1;1.9;;;;;;;16.81;95.29785;937.7996;;;;
2023/07/22 01:15:18;;;;;;;3.8;2.1;;;;;;;16.77;95.75098;937.7792;;;;
2023/07/22 01:17:42;;;;;;;3.2;2;;;;;;;16.69;96.41602;937.7894;;;;
2023/07/22 01:20:12;;;;;;;2.6;2;;;;;;;16.6;96.54688;937.6414;;;;
2023/07/22 01:22:37;;;;;;;5.4;2.1;;;;;;;16.61;97.20703;937.6975;;;;
2023/07/22 01:25:03;;;;;;;3.2;2;;;;;;;16.6;96.76758;937.6453;;;;
2023/07/22 01:27:32;;;;;;;4.2;2.5;;;;;;;16.62;95.56738;937.6905;;;;
2023/07/22 01:29:57;;;;;;;3.2;2.1;;;;;;;16.46;96.01758;937.649;;;;
2023/07/22 01:32:22;;;;;;;2.9;2.2;;;;;;;16.38;97.04297;937.7125;;;;
2023/07/22 01:34:53;;;;;;;3.8;2.4;;;;;;;16.42;97.08594;937.671;;;;
2023/07/22 01:37:47;;;;;;;3.1;2.3;;;;;;;16.46;96.79297;937.7086;;;;
2023/07/22 01:40:14;;;;;;;3;2.2;;;;;;;16.47;97.1543;937.7637;;;;
2023/07/22 01:42:39;;;;;;;2.9;2;;;;;;;16.45;96.63867;937.691;;;;
2023/07/22 01:45:08;;;;;;;3.2;2.4;;;;;;;16.48;97.2832;937.7781;;;;
2023/07/22 01:47:32;;;;;;;3.7;2.1;;;;;;;16.56;96.91895;937.7255;;;;
2023/07/22 01:49:57;;;;;;;3.5;2.2;;;;;;;16.63;96.75;937.6878;;;;
2023/07/22 01:52:25;;;;;;;2.9;2.1;;;;;;;16.6;96.15332;937.7056;;;;
2023/07/22 01:55:05;;;;;;;2.4;2;;;;;;;16.62;97.22266;937.7185;;;;
2023/07/22 01:57:26;;;;;;;2.7;2.1;;;;;;;16.66;97.00098;937.7608;;;;
2023/07/22 01:59:52;;;;;;;3;2.1;;;;;;;16.69;96.83301;937.7837;;;;
2023/07/22 02:02:17;;;;;;;4.4;2.5;;;;;;;16.75;95.88379;937.7104;;;;
2023/07/22 02:04:47;;;;;;;3.1;2.1;;;;;;;16.81;96.08301;937.8093;;;;
2023/07/22 02:07:12;;;;;;;3.5;2.3;;;;;;;16.83;96.38867;937.823;;;;
2023/07/22 02:09:39;;;;;;;3.2;2;;;;;;;16.84;96.41504;937.8195;;;;
2023/07/22 02:12:06;;;;;;;2.9;2.1;;;;;;;16.81;96.87305;937.7336;;;;
2023/07/22 02:14:30;;;;;;;2.9;2.1;;;;;;;16.75;97.12305;937.7902;;;;
2023/07/22 02:16:55;;;;;;;2.5;2.1;;;;;;;16.72;97.8125;937.7463;;;;
2023/07/22 02:19:27;;;;;;;3;2.1;;;;;;;16.73;98.71777;937.788;;;;
2023/07/22 02:21:52;;;;;;;3;2.3;;;;;;;16.64;98.97754;937.7495;;;;
2023/07/22 02:24:17;;;;;;;2.7;2;;;;;;;16.63;98.82227;937.7972;;;;
2023/07/22 02:26:45;;;;;;;3.1;2.5;;;;;;;16.63;98.38281;937.8068;;;;
2023/07/22 02:29:09;;;;;;;3.8;2.1;;;;;;;16.65;98.07422;937.7679;;;;
2023/07/22 02:31:39;;;;;;;3.5;1.9;;;;;;;16.57;98.03223;937.8226;;;;
2023/07/22 02:34:03;;;;;;;2.8;2.1;;;;;;;16.61;98.03125;937.7916;;;;
2023/07/22 02:36:31;;;;;;;3;2.3;;;;;;;16.62;98.69336;937.782;;;;
2023/07/22 02:38:56;;;;;;;3.7;2.6;;;;;;;16.56;99.00293;937.7698;;;;
2023/07/22 02:50:52;;;;;;;3.3;2.3;;;;;;;16.45;100;937.7416;;;;
2023/07/22 02:53:17;;;;;;;4;2.5;;;;;;;16.5;99.75488;937.6909;;;;
2023/07/22 02:55:43;;;;;;;3.1;2.3;;;;;;;16.47;98.94824;937.7034;;;;
2023/07/22 02:58:09;;;;;;;3.1;2.5;;;;;;;16.5;98.41211;937.8131;;;;
2023/07/22 03:00:35;;;;;;;2.7;2.3;;;;;;;16.51;98.39258;937.8484;;;;
2023/07/22 03:03:02;;;;;;;3.7;2.4;;;;;;;16.47;98.82031;937.7952;;;;
2023/07/22 03:05:28;;;;;;;3.5;2.2;;;;;;;16.51;98.31934;937.7882;;;;
2023/07/22 03:07:53;;;;;;;4.5;2.1;;;;;;;16.54;98.35059;937.6905;;;;
2023/07/22 03:10:21;;;;;;;3.4;2.5;;;;;;;16.49;98.96582;937.6895;;;;
2023/07/22 03:12:54;;;;;;;3;2.2;;;;;;;16.48;99.03125;937.8103;;;;
2023/07/22 03:15:21;;;;;;;2.8;2.1;;;;;;;16.45;99.2334;937.7681;;;;
2023/07/22 03:17:51;;;;;;;3.5;2.3;;;;;;;16.4;99.52344;937.7813;;;;
2023/07/22 03:20:21;;;;;;;3.7;2.4;;;;;;;16.46;99.44336;937.7969;;;;
2023/07/22 03:22:46;;;;;;;3.9;2.5;;;;;;;16.47;99.93164;937.8409;;;;
2023/07/22 03:25:16;;;;;;;3.8;2.2;;;;;;;16.47;99.5498;937.8716;;;;
2023/07/22 03:27:41;;;;;;;3.4;2.4;;;;;;;16.37;99.35352;937.8019;;;;
2023/07/22 03:30:14;;;;;;;3.7;2.7;;;;;;;16.25;100;937.875;;;;
2023/07/22 03:32:38;;;;;;;3.4;2.4;;;;;;;16.34;100;937.9717;;;;
2023/07/22 03:35:08;;;;;;;3;2.1;;;;;;;16.33;100;937.9535;;;;
2023/07/22 03:37:42;;;;;;;4;2.5;;;;;;;16.38;100;937.8491;;;;
2023/07/22 03:40:19;;;;;;;3.5;2.3;;;;;;;16.4;99.92676;937.8585;;;;
2023/07/22 03:42:42;;;;;;;3;2.2;;;;;;;16.41;100;937.8198;;;;
2023/07/22 03:45:17;;;;;;;2.4;1.9;;;;;;;16.39;99.93848;937.8361;;;;
2023/07/22 03:47:42;;;;;;;4;2.4;;;;;;;16.46;99.17969;937.8097;;;;
2023/07/22 03:51:31;;;;;;;3.8;2.6;;;;;;;16.51;99.05078;937.8798;;;;
2023/07/22 03:53:58;;;;;;;3.2;2.1;;;;;;;16.53;99.67969;937.8376;;;;
2023/07/22 03:56:24;;;;;;;3;2.2;;;;;;;16.52;99.68945;937.8154;;;;
2023/07/22 03:58:53;;;;;;;3.3;2.5;;;;;;;16.5;99.80078;937.871;;;;
2023/07/22 04:02:33;;;;;;;2.8;2.2;;;;;;;16.45;99.55566;937.9097;;;;
2023/07/22 04:04:58;;;;;;;3.1;2.3;;;;;;;16.45;99.5918;938.0204;;;;
2023/07/22 04:07:31;;;;;;;3.2;2.2;;;;;;;16.35;100;938.0938;;;;
2023/07/22 04:10:02;;;;;;;3.1;2.3;;;;;;;16.3;100;938.08;;;;
2023/07/22 04:12:27;;;;;;;4.7;2.7;;;;;;;16.31;100;938.1627;;;;
2023/07/22 04:14:56;;;;;;;4.4;2.4;;;;;;;16.37;99.6543;938.1401;;;;
2023/07/22 04:21:00;;;;;;;3;2.3;;;;;;;16.49;99.04688;938.1824;;;;
2023/07/22 04:23:25;;;;;;;2.9;2.2;;;;;;;16.41;99.5957;938.1711;;;;
2023/07/22 04:25:56;;;;;;;2.8;2.3;;;;;;;16.43;100;938.1051;;;;
2023/07/22 04:28:21;;;;;;;3.2;2.3;;;;;;;16.52;99.55078;938.1384;;;;
2023/07/22 04:30:47;;;;;;;3.2;2.3;;;;;;;16.5;99.80078;938.1314;;;;
2023/07/22 04:33:14;;;;;;;3.3;2.2;;;;;;;16.53;99.93262;938.0645;;;;
2023/07/22 04:35:43;;;;;;;3.8;2.3;;;;;;;16.55;99.1416;937.9957;;;;
2023/07/22 04:38:08;;;;;;;2.9;2.3;;;;;;;16.57;98.35645;937.952;;;;
2023/07/22 04:40:39;;;;;;;3.8;2.4;;;;;;;16.5;99.38184;938.0399;;;;
2023/07/22 04:43:06;;;;;;;4.4;2.4;;;;;;;16.49;100;937.9564;;;;
2023/07/22 04:45:31;;;;;;;4.7;2.6;;;;;;;16.52;100;938.0154;;;;
2023/07/22 04:47:58;;;;;;;2.8;2.2;;;;;;;16.49;100;938.007;;;;
2023/07/22 04:50:24;;;;;;;3;2.2;;;;;;;16.54;99.62402;938.0016;;;;
2023/07/22 04:52:52;;;;;;;2.7;2.2;;;;;;;16.62;99.17969;938.0369;;;;
2023/07/22 04:55:17;;;;;;;2.9;2.2;;;;;;;16.64;99.26465;938.002;;;;
2023/07/22 04:57:45;;;;;;;3.4;2.4;;;;;;;16.61;99.97656;937.9781;;;;
2023/07/22 05:00:13;;;;;;;3.5;2.4;;;;;;;16.5;100;937.978;;;;
2023/07/22 05:02:35;;;;;;;4;2.6;;;;;;;16.59;100;938.0186;;;;
2023/07/22 05:05:03;;;;;;;3.8;2.7;;;;;;;16.6;100;938.0674;;;;
2023/07/22 05:07:28;;;;;;;3.2;2.5;;;;;;;16.79;99.66797;938.1121;;;;
2023/07/22 05:09:56;;;;;;;3;2.3;;;;;;;16.92;97.8916;938.0742;;;;
2023/07/22 05:12:21;;;;;;;4.3;2.1;;;;;;;17;96.80859;938.0672;;;;
2023/07/22 05:14:47;;;;;;;2.8;2.2;;;;;;;17.08;95.92188;938.0672;;;;
2023/07/22 05:17:13;;;;;;;3.2;2.5;;;;;;;17.14;95.58789;938.1135;;;;
2023/07/22 05:19:41;;;;;;;3.5;2.5;;;;;;;17.18;95.90918;938.1346;;;;
2023/07/22 05:22:06;;;;;;;4.1;2.4;;;;;;;17.26;97.04004;938.0909;;;;
2023/07/22 05:24:35;;;;;;;3.8;2.5;;;;;;;17.57;95.72754;938.1094;;;;
2023/07/22 05:27:04;;;;;;;4.1;2.2;;;;;;;17.72;92.54492;938.1418;;;;
2023/07/22 05:29:29;;;;;;;3.9;2.1;;;;;;;17.68;90.98242;938.1981;;;;
2023/07/22 05:31:58;;;;;;;2.7;2.1;;;;;;;17.62;91.44531;938.1948;;;;
2023/07/22 05:34:30;;;;;;;4.9;2.4;;;;;;;17.6;92.83203;938.1499;;;;
2023/07/22 05:37:00;;;;;;;2.6;2;;;;;;;17.76;93.7832;938.1476;;;;
2023/07/22 05:39:29;;;;;;;3;2.1;;;;;;;18.23;93.81348;938.1136;;;;
2023/07/22 05:41:54;;;;;;;3.2;2;;;;;;;19.03;88.42969;938.1203;;;;
2023/07/22 05:44:23;;;;;;;7.1;2.5;;;;;;;19.82;84.39258;938.0541;;;;
2023/07/22 05:46:56;;;;;;;2.7;2.1;;;;;;;20.43;78.38867;938.0694;;;;
2023/07/22 05:49:26;;;;;;;3.4;2;;;;;;;21.45;73.76953;937.9504;;;;
2023/07/22 05:51:56;;;;;;;3;1.9;;;;;;;22.11;68.13672;938.0182;;;;
2023/07/22 05:54:29;;;;;;;3.6;2.2;;;;;;;21.98;67.17773;938.1033;;;;
2023/07/22 05:56:56;;;;;;;2.7;1.9;;;;;;;22.19;69.75293;938.1763;;;;
2023/07/22 05:59:21;;;;;;;3;2.4;;;;;;;22.96;66.37598;938.1669;;;;
2023/07/22 06:01:52;;;;;;;3.2;1.9;;;;;;;23.47;63.09961;938.176;;;;
2023/07/22 06:04:24;;;;;;;2.9;1.8;;;;;;;23.96;61.28516;938.1451;;;;
2023/07/22 06:07:47;;;;;;;2.6;1.9;;;;;;;22.85;61.20313;938.2386;;;;
2023/07/22 06:10:46;;;;;;;2.7;2.3;;;;;;;22.54;63.76563;938.2094;;;;
2023/07/22 06:13:17;;;;;;;2.5;1.9;;;;;;;23.53;62.97852;938.2134;;;;
2023/07/22 06:15:50;;;;;;;2.2;2;;;;;;;24.12;60.41309;938.2361;;;;
2023/07/22 06:19:11;;;;;;;2.4;1.9;;;;;;;23.96;62.63867;938.1719;;;;
2023/07/22 06:21:39;;;;;;;3.7;2.2;;;;;;;24.31;60.69727;938.1767;;;;
2023/07/22 06:24:05;;;;;;;2.7;2;;;;;;;24.77;59.30957;938.2061;;;;
2023/07/22 06:26:32;;;;;;;2.7;2;;;;;;;23.96;61.32031;938.256;;;;
2023/07/22 06:28:57;;;;;;;3.4;2.2;;;;;;;24.82;62.2168;938.221;;;;
2023/07/22 06:31:30;;;;;;;2.6;2.1;;;;;;;23.84;63.91699;938.2203;;;;
2023/07/22 06:33:51;;;;;;;3.1;2.1;;;;;;;24.07;62.9707;938.2639;;;;
2023/07/22 06:36:19;;;;;;;2.4;2.1;;;;;;;23.98;62.95996;938.2704;;;;
2023/07/22 06:38:44;;;;;;;2.7;2;;;;;;;24.04;64.89844;938.2903;;;;
2023/07/22 06:41:11;;;;;;;3.1;2.1;;;;;;;23.5;65.00879;938.2715;;;;
2023/07/22 06:43:36;;;;;;;2.7;2;;;;;;;23.55;65.80371;938.2859;;;;
2023/07/22 06:46:07;;;;;;;2.9;2;;;;;;;23.59;66.44629;938.2974;;;;
2023/07/22 06:48:32;;;;;;;3.9;2.2;;;;;;;23.9;64.38574;938.3072;;;;
2023/07/22 06:50:59;;;;;;;2.7;2.1;;;;;;;24.03;62.14258;938.2947;;;;
2023/07/22 06:53:24;;;;;;;2.1;1.9;;;;;;;24.25;64.08203;938.2921;;;;
2023/07/22 06:55:51;;;;;;;2.6;2.2;;;;;;;24.26;62.48047;938.3111;;;;
2023/07/22 06:58:16;;;;;;;3.1;2.1;;;;;;;24.2;63.01367;938.2916;;;;
2023/07/22 07:00:45;;;;;;;2.7;2;;;;;;;23.57;64.39453;938.2977;;;;
2023/07/22 07:03:11;;;;;;;3.1;1.9;;;;;;;23.67;63.71582;938.3686;;;;
2023/07/22 07:09:05;;;;;;;3.2;2;;;;;;;23.99;60.15918;938.2578;;;;
2023/07/22 07:11:32;;;;;;;2.3;1.9;;;;;;;23.72;59.33398;938.2894;;;;
2023/07/22 07:13:57;;;;;;;2.8;1.7;;;;;;;23.77;63.80273;938.2862;;;;
2023/07/22 07:16:27;;;;;;;2.7;2;;;;;;;24.4;60.40234;938.3208;;;;
2023/07/22 07:18:52;;;;;;;2.7;1.9;;;;;;;23.87;60.04883;938.3045;;;;
2023/07/22 07:21:20;;;;;;;3.6;2.2;;;;;;;23.09;64.10352;938.3678;;;;
2023/07/22 07:23:45;;;;;;;2.5;2;;;;;;;23.76;62.96387;938.4241;;;;
2023/07/22 07:26:11;;;;;;;2.7;2;;;;;;;25.2;56.55762;938.4203;;;;
2023/07/22 07:28:37;;;;;;;3.6;2.1;;;;;;;24.69;57.24707;938.5193;;;;
2023/07/22 07:31:05;;;;;;;2.2;1.6;;;;;;;23.96;56.48242;938.5721;;;;
2023/07/22 07:33:30;;;;;;;2.2;1.9;;;;;;;24.58;52.95313;938.5094;;;;
2023/07/22 07:35:59;;;;;;;2.7;1.7;;;;;;;24.41;57.36426;938.5076;;;;
2023/07/22 07:38:31;;;;;;;2.3;2;;;;;;;24.86;54.36719;938.4711;;;;
2023/07/22 07:41:02;;;;;;;3;1.9;;;;;;;23.71;55.99121;938.449;;;;
2023/07/22 07:43:31;;;;;;;5.7;2.2;;;;;;;23.79;54.63672;938.3929;;;;
2023/07/22 07:46:03;;;;;;;3.6;2.1;;;;;;;23.33;58.18945;938.4902;;;;
2023/07/22 07:48:30;;;;;;;3.1;2.2;;;;;;;23.39;57.4209;938.4871;;;;
2023/07/22 07:50:56;;;;;;;2.5;1.9;;;;;;;24.74;56.26367;938.4681;;;;
2023/07/22 07:53:21;;;;;;;4.1;2;;;;;;;25.09;52.38867;938.5054;;;;
2023/07/22 07:55:49;;;;;;;2.6;1.7;;;;;;;24.94;55.0498;938.4725;;;;
2023/07/22 07:58:14;;;;;;;2.1;1.7;;;;;;;25.29;56.26074;938.4221;;;;
2023/07/22 08:00:42;;;;;;;2.5;1.9;;;;;;;25.25;52.39551;938.366;;;;
2023/07/22 08:03:07;;;;;;;2.2;1.7;;;;;;;25.08;52.88281;938.3181;;;;
2023/07/22 08:05:38;;;;;;;3;1.7;;;;;;;24.31;55.61816;938.3518;;;;
2023/07/22 08:08:05;;;;;;;3.1;1.7;;;;;;;24.56;53.29297;938.3653;;;;
2023/07/22 08:10:30;;;;;;;1.9;1.7;;;;;;;25.45;53.86035;938.397;;;;
2023/07/22 08:12:59;;;;;;;2.4;1.6;;;;;;;26.35;49.19922;938.45;;;;
2023/07/22 08:15:23;;;;;;;2.6;1.8;;;;;;;27.5;47.41406;938.382;;;;
2023/07/22 08:17:52;;;;;;;3.1;1.7;;;;;;;27.59;45.83398;938.3697;;;;
2023/07/22 08:20:17;;;;;;;2;1.8;;;;;;;27.01;46.83008;938.3414;;;;
2023/07/22 08:22:47;;;;;;;2.2;1.8;;;;;;;28.23;46.36133;938.3621;;;;
2023/07/22 08:25:19;;;;;;;2.4;1.8;;;;;;;27.15;49.46387;938.4042;;;;
2023/07/22 08:27:47;;;;;;;2.2;1.7;;;;;;;26.15;51.15234;938.3959;;;;
2023/07/22 08:30:12;;;;;;;2.5;1.6;;;;;;;27.52;48.63867;938.3292;;;;
2023/07/22 08:32:41;;;;;;;1.8;1.6;;;;;;;25.55;49.46484;938.2322;;;;
2023/07/22 08:35:17;;;;;;;2.7;1.8;;;;;;;25.16;52.29102;938.1758;;;;
2023/07/22 08:37:38;;;;;;;2.2;1.7;;;;;;;25.48;53.86426;938.2313;;;;
2023/07/22 08:40:08;;;;;;;2.5;1.8;;;;;;;25.56;54.19238;938.1331;;;;
2023/07/22 08:42:33;;;;;;;2.5;1.6;;;;;;;26.84;51.55078;938.1981;;;;
2023/07/22 08:45:00;;;;;;;3.4;1.6;;;;;;;27.48;47.68555;938.2072;;;;
2023/07/22 08:47:27;;;;;;;1.9;1.6;;;;;;;28.56;43.83984;938.2468;;;;
2023/07/22 08:49:51;;;;;;;2.3;1.9;;;;;;;30.11;40.01563;938.1259;;;;
2023/07/22 08:52:18;;;;;;;1.7;1.6;;;;;;;28.88;45.78711;938.1756;;;;
2023/07/22 08:54:43;;;;;;;1.6;1.5;;;;;;;29.74;42.70215;938.1273;;;;
2023/07/22 08:57:09;;;;;;;1.8;1.6;;;;;;;28.66;44.51465;938.0734;;;;
2023/07/22 08:59:34;;;;;;;2.2;1.6;;;;;;;28.04;48.80078;938.1454;;;;
2023/07/22 09:02:02;;;;;;;2.4;1.6;;;;;;;27.89;47.13477;938.1266;;;;
2023/07/22 09:04:27;;;;;;;1.8;1.7;;;;;;;27.43;47.92871;938.1992;;;;
2023/07/22 09:06:53;;;;;;;2.9;1.7;;;;;;;26.05;54.36914;938.2028;;;;
2023/07/22 09:09:18;;;;;;;1.9;1.5;;;;;;;26.56;50.86816;938.1674;;;;
2023/07/22 09:11:43;;;;;;;1.9;1.7;;;;;;;26.93;51.52637;938.1827;;;;
2023/07/22 09:14:10;;;;;;;2;1.6;;;;;;;27.38;49.95117;938.2103;;;;
2023/07/22 09:16:35;;;;;;;2.5;1.7;;;;;;;27.87;50.01855;938.1411;;;;
2023/07/22 09:19:00;;;;;;;1.9;1.5;;;;;;;27.87;48.01172;938.1052;;;;
2023/07/22 09:21:29;;;;;;;2.6;1.8;;;;;;;27.67;48.21484;938.2383;;;;
2023/07/22 09:23:54;;;;;;;1.7;1.6;;;;;;;27.89;48.15625;938.197;;;;
2023/07/22 09:26:20;;;;;;;1.9;1.7;;;;;;;27.52;49.14844;938.1358;;;;
2023/07/22 09:28:44;;;;;;;2.8;1.7;;;;;;;27.65;49.62695;938.1498;;;;
2023/07/22 09:31:13;;;;;;;2.4;1.6;;;;;;;27.85;46.87012;938.0784;;;;
2023/07/22 09:33:40;;;;;;;2;1.6;;;;;;;28.37;46.49512;938.1091;;;;
2023/07/22 09:36:05;;;;;;;2.1;1.5;;;;;;;28.87;44.85742;938.1002;;;;
2023/07/22 09:38:35;;;;;;;2.7;1.7;;;;;;;29.01;44.67969;938.0909;;;;
2023/07/22 09:41:00;;;;;;;2.3;1.9;;;;;;;28.16;44.92969;938.0541;;;;
2023/07/22 09:43:30;;;;;;;2.2;1.6;;;;;;;27.57;46.65039;938.0838;;;;
2023/07/22 09:45:55;;;;;;;2;1.7;;;;;;;26.8;50.11328;938.0012;;;;
2023/07/22 09:48:20;;;;;;;2;1.8;;;;;;;26.45;49.71875;938.0369;;;;
2023/07/22 09:50:53;;;;;;;3.3;1.7;;;;;;;25.78;52.58691;938.0078;;;;
2023/07/22 09:53:23;;;;;;;2.3;1.6;;;;;;;26.23;51.70508;938.0559;;;;
2023/07/22 09:55:50;;;;;;;2.1;1.8;;;;;;;26.07;51.99512;938.0115;;;;
2023/07/22 09:58:20;;;;;;;2.4;1.6;;;;;;;25.55;55.125;938.0117;;;;
2023/07/22 10:00:48;;;;;;;2.9;1.8;;;;;;;25.95;53.54102;937.9775;;;;
2023/07/22 10:03:14;;;;;;;4.1;1.7;;;;;;;26.7;50.32715;937.9839;;;;
2023/07/22 10:05:40;;;;;;;2.2;1.8;;;;;;;25.76;51.72266;937.9253;;;;
2023/07/22 10:08:08;;;;;;;2.3;1.6;;;;;;;25.82;54.2002;937.9167;;;;
2023/07/22 10:10:43;;;;;;;3.3;1.8;;;;;;;26.44;53.45898;937.9572;;;;
2023/07/22 10:13:16;;;;;;;3.1;1.8;;;;;;;26.68;50.32422;937.9693;;;;
2023/07/22 10:15:41;;;;;;;1.9;1.7;;;;;;;26.61;51.45313;938.0433;;;;
2023/07/22 10:18:12;;;;;;;2.8;1.8;;;;;;;26.18;51.29688;937.9554;;;;
2023/07/22 10:20:40;;;;;;;2.1;1.8;;;;;;;26.11;52.10449;937.9404;;;;
2023/07/22 10:23:06;;;;;;;2.5;1.7;;;;;;;26.67;50.16992;937.817;;;;
2023/07/22 10:25:35;;;;;;;2.8;1.4;;;;;;;26.67;49.81543;937.9493;;;;
2023/07/22 10:30:42;;;;;;;2.3;1.7;;;;;;;26.65;52.33594;937.8981;;;;
2023/07/22 10:33:13;;;;;;;2.5;2;;;;;;;26.58;54.14941;937.8708;;;;
2023/07/22 10:38:45;;;;;;;1.9;1.3;;;;;;;26.08;51.35742;937.8836;;;;
2023/07/22 10:41:10;;;;;;;2.5;1.7;;;;;;;26.28;50.34961;937.9425;;;;
2023/07/22 10:43:35;;;;;;;2.9;1.7;;;;;;;25.54;52.41699;937.8641;;;;
2023/07/22 10:55:34;;;;;;;2.6;1.8;;;;;;;26.17;51.39063;937.8132;;;;
2023/07/22 10:57:59;;;;;;;2;1.8;;;;;;;26.01;49.84668;937.7484;;;;
2023/07/22 11:00:28;;;;;;;2.7;1.9;;;;;;;26.5;48.80176;937.7296;;;;
2023/07/22 11:03:01;;;;;;;2.8;1.6;;;;;;;27.03;48.36035;937.7233;;;;
2023/07/22 11:05:26;;;;;;;3.4;2;;;;;;;27;51.16699;937.7263;;;;
2023/07/22 11:07:54;;;;;;;31.3;16.1;;;;;;;26.51;53.76172;937.6907;;;;
2023/07/22 11:10:25;;;;;;;4.3;2.4;;;;;;;26.86;49.61035;937.635;;;;
2023/07/22 11:15:17;;;;;;;3.5;2.1;;;;;;;25.98;53.03711;937.704;;;;
2023/07/22 11:17:47;;;;;;;3.1;1.7;;;;;;;25.13;53.03125;937.6703;;;;
2023/07/22 11:20:19;;;;;;;2.4;1.7;;;;;;;24.84;51.18066;937.6606;;;;
2023/07/22 11:22:48;;;;;;;3.8;1.7;;;;;;;25.42;52.09668;937.6086;;;;
2023/07/22 11:25:13;;;;;;;2.5;1.8;;;;;;;25.66;51.30859;937.6489;;;;
2023/07/22 11:27:42;;;;;;;2.9;1.7;;;;;;;25.5;53.37012;937.6506;;;;
2023/07/22 11:30:14;;;;;;;3;1.8;;;;;;;25.36;50.97949;937.5959;;;;
2023/07/22 11:33:15;;;;;;;1.6;1.4;;;;;;;24.92;53.26563;937.5967;;;;
2023/07/22 11:35:42;;;;;;;3.6;1.8;;;;;;;24.42;52.78125;937.5659;;;;
2023/07/22 11:38:55;;;;;;;2.7;1.7;;;;;;;23.91;55.58105;937.6033;;;;
2023/07/22 11:41:21;;;;;;;3.4;1.9;;;;;;;23.76;54.77441;937.579;;;;
2023/07/22 11:43:46;;;;;;;3.2;1.9;;;;;;;23.86;54.83301;937.6145;;;;
2023/07/22 11:46:16;;;;;;;2.3;1.6;;;;;;;23.93;54.58398;937.5999;;;;
2023/07/22 11:48:41;;;;;;;2.9;1.7;;;;;;;24.13;56.8457;937.5377;;;;
2023/07/22 11:51:09;;;;;;;5.6;1.9;;;;;;;24.2;55.67676;937.4728;;;;
2023/07/22 11:53:34;;;;;;;4.3;1.9;;;;;;;24.29;55.21582;937.5248;;;;
2023/07/22 11:55:59;;;;;;;2.9;1.9;;;;;;;24.18;54.07324;937.4711;;;;
2023/07/22 11:58:25;;;;;;;2.8;1.8;;;;;;;24.31;54.38281;937.4342;;;;
2023/07/22 12:00:53;;;;;;;2.6;1.8;;;;;;;24.35;51.89063;937.4925;;;;
2023/07/22 12:03:26;;;;;;;2.4;1.9;;;;;;;24.14;54.50293;937.5006;;;;
2023/07/22 12:05:51;;;;;;;2.8;2.1;;;;;;;24.35;52.74902;937.4537;;;;
2023/07/22 12:08:16;;;;;;;2.5;1.8;;;;;;;24.57;52.26855;937.4603;;;;
2023/07/22 12:10:47;;;;;;;3;2;;;;;;;24.59;52.64844;937.3308;;;;
2023/07/22 12:13:15;;;;;;;2.8;2;;;;;;;24.46;51.81934;937.3547;;;;
2023/07/22 12:15:40;;;;;;;2.7;1.8;;;;;;;24.56;53.71777;937.3645;;;;
2023/07/22 12:18:09;;;;;;;3.2;2;;;;;;;24.61;53.31055;937.3002;;;;
2023/07/22 12:20:35;;;;;;;2.7;1.9;;;;;;;24.28;54.88574;937.3621;;;;
2023/07/22 12:23:00;;;;;;;3.6;1.7;;;;;;;24.49;52.35352;937.3605;;;;
2023/07/22 12:25:26;;;;;;;4.1;2.3;;;;;;;24.44;52.07617;937.4457;;;;
2023/07/22 12:27:51;;;;;;;2.5;1.8;;;;;;;24.45;52.58301;937.3683;;;;
2023/07/22 12:30:23;;;;;;;3;2;;;;;;;24.58;52.77734;937.3815;;;;
2023/07/22 12:32:48;;;;;;;3.2;2.1;;;;;;;25.11;51.06738;937.3286;;;;
2023/07/22 12:35:19;;;;;;;3;2.1;;;;;;;25.55;49.12305;937.296;;;;
2023/07/22 12:37:52;;;;;;;3.8;1.9;;;;;;;25.67;48.39063;937.3244;;;;
2023/07/22 12:40:18;;;;;;;3.3;2.1;;;;;;;25.36;49.63281;937.3549;;;;
2023/07/22 12:42:50;;;;;;;2.8;2;;;;;;;25.53;48.55371;937.2634;;;;
2023/07/22 12:45:19;;;;;;;2.6;1.6;;;;;;;25.53;49.23828;937.1852;;;;
2023/07/22 12:47:44;;;;;;;4.7;1.9;;;;;;;25.58;47.53125;937.212;;;;
2023/07/22 12:50:18;;;;;;;3.1;1.8;;;;;;;25.76;47.99902;937.2068;;;;
2023/07/22 12:52:55;;;;;;;3;1.9;;;;;;;25.46;46.69141;937.1803;;;;
2023/07/22 12:55:21;;;;;;;3.9;1.8;;;;;;;25.48;50.22559;937.2462;;;;
2023/07/22 12:57:47;;;;;;;2.1;1.8;;;;;;;25.56;48.55664;937.1887;;;;
2023/07/22 13:00:22;;;;;;;2.6;2;;;;;;;25.77;47.19629;937.2317;;;;
2023/07/22 13:02:54;;;;;;;2.3;1.9;;;;;;;25.41;47.00488;937.1747;;;;
2023/07/22 13:05:25;;;;;;;3.2;1.9;;;;;;;25.31;48.87109;937.2015;;;;
2023/07/22 13:07:50;;;;;;;2.5;1.9;;;;;;;25.5;48.38477;937.1722;;;;
2023/07/22 13:10:17;;;;;;;2.7;1.9;;;;;;;25.66;48.7207;937.1522;;;;
2023/07/22 13:12:40;;;;;;;2.6;2.2;;;;;;;25.71;51.46875;937.1912;;;;
2023/07/22 13:15:12;;;;;;;2.9;1.9;;;;;;;25.64;48.77832;937.1922;;;;
2023/07/22 13:17:38;;;;;;;3;1.8;;;;;;;25.33;51.08301;937.1689;;;;
2023/07/22 13:20:11;;;;;;;2;1.8;;;;;;;25.17;50.6748;937.2097;;;;
2023/07/22 13:22:46;;;;;;;2.5;1.9;;;;;;;24.35;52.76074;937.238;;;;
2023/07/22 13:25:17;;;;;;;2.3;1.9;;;;;;;24.22;52.87598;937.2586;;;;
2023/07/22 13:27:48;;;;;;;2.1;1.7;;;;;;;24.47;52.78711;937.1996;;;;
2023/07/22 13:30:20;;;;;;;2.5;1.8;;;;;;;25.02;51.18945;937.254;;;;
2023/07/22 13:32:49;;;;;;;2.8;1.9;;;;;;;25.07;51.06445;937.1883;;;;
2023/07/22 13:35:16;;;;;;;3.1;2;;;;;;;25.44;49.59375;937.2168;;;;
2023/07/22 13:37:41;;;;;;;2.3;1.7;;;;;;;25.66;49.96289;937.1967;;;;
2023/07/22 13:40:13;;;;;;;2.9;1.9;;;;;;;25.49;48.26563;937.1895;;;;
2023/07/22 13:42:41;;;;;;;3;1.9;;;;;;;25.41;48.63477;937.2425;;;;
2023/07/22 13:45:07;;;;;;;2.4;1.9;;;;;;;25.17;49.19922;937.266;;;;
2023/07/22 13:47:36;;;;;;;2.1;1.6;;;;;;;25.05;48.91504;937.3141;;;;
2023/07/22 13:50:01;;;;;;;3.3;1.9;;;;;;;24.87;51.40723;937.2319;;;;
2023/07/22 13:52:30;;;;;;;2.8;1.7;;;;;;;24.88;49.20117;937.2297;;;;
2023/07/22 13:54:59;;;;;;;2.3;1.7;;;;;;;24.92;48.60547;937.2054;;;;
2023/07/22 13:57:24;;;;;;;2.3;1.8;;;;;;;25.29;48.25586;937.2017;;;;
2023/07/22 19:21:23;;;;;;;1.9;1.7;;;;;;;20.71;69.82422;937.7492;;;;
2023/07/22 19:24:25;;;;;;;5.4;2.8;;;;;;;20.55;70.3252;937.7584;;;;
2023/07/22 19:26:51;;;;;;;3.4;2.9;;;;;;;20.13;71.05176;937.7618;;;;
2023/07/22 19:29:21;;;;;;;3.2;2.5;;;;;;;19.79;72.45508;937.8513;;;;
2023/07/22 19:31:46;;;;;;;4.1;2.3;;;;;;;19.61;73.44043;937.8533;;;;
2023/07/22 19:34:12;;;;;;;4.1;2.7;;;;;;;19.53;74.24219;937.9091;;;;
2023/07/22 19:36:45;;;;;;;4.6;2.8;;;;;;;19.47;74.47656;937.9214;;;;
2023/07/22 19:39:17;;;;;;;4.3;2.7;;;;;;;19.44;74.99805;937.963;;;;
2023/07/22 19:41:53;;;;;;;6;3.2;;;;;;;19.37;75.25391;938.0114;;;;
2023/07/22 19:44:20;;;;;;;5.9;3;;;;;;;19.33;75.86133;938.0165;;;;
2023/07/22 19:46:51;;;;;;;6.3;2.9;;;;;;;19.29;76.125;938.0772;;;;
2023/07/22 19:49:17;;;;;;;5.1;2.7;;;;;;;19.2;76.27246;938.0492;;;;
2023/07/22 19:51:48;;;;;;;5.9;2.9;;;;;;;19.15;76.46094;938.2047;;;;
2023/07/22 19:54:16;;;;;;;4.9;2.9;;;;;;;19.12;76.38672;938.2125;;;;
2023/07/22 19:56:46;;;;;;;4.5;3.1;;;;;;;19.14;76.71582;938.225;;;;
2023/07/22 19:59:13;;;;;;;4.3;2.7;;;;;;;19.14;76.77441;938.2597;;;;
2023/07/22 20:01:39;;;;;;;6.4;3.1;;;;;;;19.06;77.16895;938.243;;;;
2023/07/22 20:04:06;;;;;;;4.6;3.3;;;;;;;18.95;77.56543;938.2695;;;;
2023/07/22 20:06:31;;;;;;;5;2.9;;;;;;;18.91;77.66602;938.2679;;;;
2023/07/22 20:09:02;;;;;;;4;2.7;;;;;;;18.83;77.60449;938.2819;;;;
2023/07/22 20:11:28;;;;;;;3.5;2.3;;;;;;;18.77;77.47559;938.3483;;;;
2023/07/22 20:13:54;;;;;;;3.6;2.7;;;;;;;18.75;77.31152;938.3171;;;;
2023/07/22 20:16:19;;;;;;;4;2.5;;;;;;;18.74;77.84375;938.3352;;;;
2023/07/22 20:18:44;;;;;;;4.5;2.5;;;;;;;18.74;77.30859;938.3207;;;;
2023/07/22 20:21:13;;;;;;;6.7;2.9;;;;;;;18.68;77.45117;938.3525;;;;
2023/07/22 20:23:40;;;;;;;5.6;3.2;;;;;;;18.57;77.80176;938.3303;;;;
2023/07/22 20:26:03;;;;;;;3.8;2.7;;;;;;;18.46;78.15625;938.3823;;;;
2023/07/22 20:28:30;;;;;;;5.3;2.7;;;;;;;18.32;78.72266;938.377;;;;
2023/07/22 20:30:57;;;;;;;5;3.1;;;;;;;18.23;79.02246;938.3433;;;;
2023/07/22 20:33:25;;;;;;;3.9;2.6;;;;;;;18.17;79.13867;938.3563;;;;
2023/07/22 20:35:57;;;;;;;4.4;2.9;;;;;;;18.18;79.49902;938.3714;;;;
2023/07/22 20:38:29;;;;;;;4.8;2.7;;;;;;;18.18;79.40723;938.4286;;;;
2023/07/22 20:40:54;;;;;;;3.3;2.6;;;;;;;18.25;79.4668;938.3906;;;;